sensor_id;sensor_type;location;lat;lon;timestamp;temperature;humidity
19799;DHT22;10059;59.850;10.454;2023-06-22T00:01:13;15.30;99.90
19799;DHT22;10059;59.850;10.454;2023-06-22T00:03:40;15.30;99.90
19799;DHT22;10059;59.850;10.454;2023-06-22T00:06:07;15.30;99.90
19799;DHT22;10059;59.850;10.454;2023-06-22T00:08:33;15.30;99.90
19799;DHT22;10059;59.850;10.454;2023-06-22T00:11:00;15.40;99.90
19799;DHT22;10059;59.850;10.454;2023-06-22T00:13:27;15.20;99.90
19799;DHT22;10059;59.850;10.454;2023-06-22T00:15:55;15.10;99.90
19799;DHT22;10059;59.850;10.454;2023-06-22T00:18:22;15.00;99.90
19799;DHT22;10059;59.850;10.454;2023-06-22T00:20:54;14.90;99.90
19799;DHT22;10059;59.850;10.454;2023-06-22T00:23:23;14.90;99.90
19799;DHT22;10059;59.850;10.454;2023-06-22T00:25:51;14.90;99.90
19799;DHT22;10059;59.850;10.454;2023-06-22T00:28:18;15.00;99.90
19799;DHT22;10059;59.850;10.454;2023-06-22T00:30:45;15.10;99.90
19799;DHT22;10059;59.850;10.454;2023-06-22T00:33:14;14.90;99.90
19799;DHT22;10059;59.850;10.454;2023-06-22T00:35:41;14.80;99.90
19799;DHT22;10059;59.850;10.454;2023-06-22T00:38:08;14.70;99.90
19799;DHT22;10059;59.850;10.454;2023-06-22T00:40:35;14.70;99.90
19799;DHT22;10059;59.850;10.454;2023-06-22T00:43:02;14.70;99.90
19799;DHT22;10059;59.850;10.454;2023-06-22T00:45:30;14.70;99.90
19799;DHT22;10059;59.850;10.454;2023-06-22T00:47:58;14.60;99.90
19799;DHT22;10059;59.850;10.454;2023-06-22T00:50:27;14.50;99.90
19799;DHT22;10059;59.850;10.454;2023-06-22T00:52:56;14.50;99.90
19799;DHT22;10059;59.850;10.454;2023-06-22T00:55:24;14.50;99.90
19799;DHT22;10059;59.850;10.454;2023-06-22T00:57:51;14.40;99.90
19799;DHT22;10059;59.850;10.454;2023-06-22T01:00:21;14.40;99.90
19799;DHT22;10059;59.850;10.454;2023-06-22T01:02:51;14.40;99.90
19799;DHT22;10059;59.850;10.454;2023-06-22T01:05:19;14.40;99.90
19799;DHT22;10059;59.850;10.454;2023-06-22T01:08:04;14.50;99.90
19799;DHT22;10059;59.850;10.454;2023-06-22T01:10:37;14.50;99.90
19799;DHT22;10059;59.850;10.454;2023-06-22T01:13:11;14.70;99.90
19799;DHT22;10059;59.850;10.454;2023-06-22T01:15:42;14.60;99.90
19799;DHT22;10059;59.850;10.454;2023-06-22T01:18:13;14.60;99.90
19799;DHT22;10059;59.850;10.454;2023-06-22T01:20:41;14.60;99.90
19799;DHT22;10059;59.850;10.454;2023-06-22T01:23:17;14.40;99.90
19799;DHT22;10059;59.850;10.454;2023-06-22T01:25:50;14.30;99.90
19799;DHT22;10059;59.850;10.454;2023-06-22T01:28:36;14.30;99.90
19799;DHT22;10059;59.850;10.454;2023-06-22T01:31:04;14.30;99.90
19799;DHT22;10059;59.850;10.454;2023-06-22T01:33:37;14.50;99.90
19799;DHT22;10059;59.850;10.454;2023-06-22T01:36:05;14.50;99.90
19799;DHT22;10059;59.850;10.454;2023-06-22T01:38:33;14.60;99.90
19799;DHT22;10059;59.850;10.454;2023-06-22T01:41:01;14.70;99.90
19799;DHT22;10059;59.850;10.454;2023-06-22T01:43:29;14.40;99.90
19799;DHT22;10059;59.850;10.454;2023-06-22T01:46:00;14.20;99.90
19799;DHT22;10059;59.850;10.454;2023-06-22T01:48:27;14.10;99.90
19799;DHT22;10059;59.850;10.454;2023-06-22T01:50:55;13.90;99.90
19799;DHT22;10059;59.850;10.454;2023-06-22T01:53:22;13.80;99.90
19799;DHT22;10059;59.850;10.454;2023-06-22T01:55:49;13.90;99.90
19799;DHT22;10059;59.850;10.454;2023-06-22T01:58:16;14.00;99.90
19799;DHT22;10059;59.850;10.454;2023-06-22T02:00:48;14.00;99.90
19799;DHT22;10059;59.850;10.454;2023-06-22T02:03:21;14.00;99.90
19799;DHT22;10059;59.850;10.454;2023-06-22T02:05:52;13.90;99.90
19799;DHT22;10059;59.850;10.454;2023-06-22T02:08:23;13.90;99.90
19799;DHT22;10059;59.850;10.454;2023-06-22T02:10:52;13.90;99.90
19799;DHT22;10059;59.850;10.454;2023-06-22T02:13:19;13.90;99.90
19799;DHT22;10059;59.850;10.454;2023-06-22T02:15:47;13.90;99.90
19799;DHT22;10059;59.850;10.454;2023-06-22T02:18:14;13.80;99.90
19799;DHT22;10059;59.850;10.454;2023-06-22T02:20:42;14.00;99.90
19799;DHT22;10059;59.850;10.454;2023-06-22T02:23:09;14.00;99.90
19799;DHT22;10059;59.850;10.454;2023-06-22T02:25:36;14.10;99.90
19799;DHT22;10059;59.850;10.454;2023-06-22T02:28:04;14.10;99.90
19799;DHT22;10059;59.850;10.454;2023-06-22T02:30:32;14.00;99.90
19799;DHT22;10059;59.850;10.454;2023-06-22T02:32:59;14.00;99.90
19799;DHT22;10059;59.850;10.454;2023-06-22T02:35:26;14.10;99.90
19799;DHT22;10059;59.850;10.454;2023-06-22T02:37:58;14.10;99.90
19799;DHT22;10059;59.850;10.454;2023-06-22T02:40:26;14.10;99.90
19799;DHT22;10059;59.850;10.454;2023-06-22T02:42:53;14.20;99.90
19799;DHT22;10059;59.850;10.454;2023-06-22T02:45:19;14.10;99.90
19799;DHT22;10059;59.850;10.454;2023-06-22T02:47:46;14.20;99.90
19799;DHT22;10059;59.850;10.454;2023-06-22T02:50:14;14.20;99.90
19799;DHT22;10059;59.850;10.454;2023-06-22T02:52:41;14.20;99.90
19799;DHT22;10059;59.850;10.454;2023-06-22T02:55:09;14.00;99.90
19799;DHT22;10059;59.850;10.454;2023-06-22T02:57:36;14.10;99.90
19799;DHT22;10059;59.850;10.454;2023-06-22T03:00:04;14.10;99.90
19799;DHT22;10059;59.850;10.454;2023-06-22T03:02:42;14.20;99.90
19799;DHT22;10059;59.850;10.454;2023-06-22T03:05:09;14.20;99.90
19799;DHT22;10059;59.850;10.454;2023-06-22T03:07:39;14.20;99.90
19799;DHT22;10059;59.850;10.454;2023-06-22T03:10:09;14.30;99.90
19799;DHT22;10059;59.850;10.454;2023-06-22T03:12:36;14.20;99.90
19799;DHT22;10059;59.850;10.454;2023-06-22T03:15:05;14.00;99.90
19799;DHT22;10059;59.850;10.454;2023-06-22T03:17:32;14.10;99.90
19799;DHT22;10059;59.850;10.454;2023-06-22T03:19:59;14.30;99.90
19799;DHT22;10059;59.850;10.454;2023-06-22T03:22:26;14.20;99.90
19799;DHT22;10059;59.850;10.454;2023-06-22T03:24:53;14.10;99.90
19799;DHT22;10059;59.850;10.454;2023-06-22T03:27:21;14.20;99.90
19799;DHT22;10059;59.850;10.454;2023-06-22T03:29:48;14.30;99.90
19799;DHT22;10059;59.850;10.454;2023-06-22T03:32:15;14.40;99.90
19799;DHT22;10059;59.850;10.454;2023-06-22T03:34:41;14.60;99.90
19799;DHT22;10059;59.850;10.454;2023-06-22T03:37:13;14.80;99.90
19799;DHT22;10059;59.850;10.454;2023-06-22T03:39:40;14.90;99.90
19799;DHT22;10059;59.850;10.454;2023-06-22T03:42:07;15.00;99.90
19799;DHT22;10059;59.850;10.454;2023-06-22T03:44:35;15.00;99.90
19799;DHT22;10059;59.850;10.454;2023-06-22T03:47:03;15.10;99.90
19799;DHT22;10059;59.850;10.454;2023-06-22T03:49:32;15.30;99.90
19799;DHT22;10059;59.850;10.454;2023-06-22T03:51:59;15.30;99.90
19799;DHT22;10059;59.850;10.454;2023-06-22T03:54:26;15.40;99.90
19799;DHT22;10059;59.850;10.454;2023-06-22T03:56:53;15.40;99.90
19799;DHT22;10059;59.850;10.454;2023-06-22T03:59:20;15.60;99.90
19799;DHT22;10059;59.850;10.454;2023-06-22T04:01:48;15.70;99.90
19799;DHT22;10059;59.850;10.454;2023-06-22T04:04:16;15.80;99.90
19799;DHT22;10059;59.850;10.454;2023-06-22T04:06:43;15.80;99.90
19799;DHT22;10059;59.850;10.454;2023-06-22T04:09:09;15.90;99.90
19799;DHT22;10059;59.850;10.454;2023-06-22T04:11:36;16.00;99.90
19799;DHT22;10059;59.850;10.454;2023-06-22T04:14:03;16.10;99.90
19799;DHT22;10059;59.850;10.454;2023-06-22T04:16:30;16.20;99.90
19799;DHT22;10059;59.850;10.454;2023-06-22T04:18:58;16.30;99.90
19799;DHT22;10059;59.850;10.454;2023-06-22T04:21:25;16.30;99.90
19799;DHT22;10059;59.850;10.454;2023-06-22T04:23:52;16.40;99.90
19799;DHT22;10059;59.850;10.454;2023-06-22T04:26:18;16.40;99.90
19799;DHT22;10059;59.850;10.454;2023-06-22T04:28:46;16.30;99.90
19799;DHT22;10059;59.850;10.454;2023-06-22T04:31:17;16.50;99.90
19799;DHT22;10059;59.850;10.454;2023-06-22T04:33:45;16.80;99.90
19799;DHT22;10059;59.850;10.454;2023-06-22T04:36:13;16.80;99.90
19799;DHT22;10059;59.850;10.454;2023-06-22T04:38:40;16.90;99.90
19799;DHT22;10059;59.850;10.454;2023-06-22T04:41:07;17.10;99.90
19799;DHT22;10059;59.850;10.454;2023-06-22T04:43:39;17.10;99.90
19799;DHT22;10059;59.850;10.454;2023-06-22T04:46:06;17.30;99.90
19799;DHT22;10059;59.850;10.454;2023-06-22T04:48:33;17.40;99.90
19799;DHT22;10059;59.850;10.454;2023-06-22T04:51:00;17.50;99.90
19799;DHT22;10059;59.850;10.454;2023-06-22T04:53:31;17.70;99.90
19799;DHT22;10059;59.850;10.454;2023-06-22T04:55:58;17.80;99.90
19799;DHT22;10059;59.850;10.454;2023-06-22T04:58:25;17.90;99.90
19799;DHT22;10059;59.850;10.454;2023-06-22T05:00:54;17.90;99.90
19799;DHT22;10059;59.850;10.454;2023-06-22T05:03:22;18.10;99.90
19799;DHT22;10059;59.850;10.454;2023-06-22T05:05:51;18.20;99.90
19799;DHT22;10059;59.850;10.454;2023-06-22T05:08:19;18.30;99.90
19799;DHT22;10059;59.850;10.454;2023-06-22T05:10:49;18.40;99.90
19799;DHT22;10059;59.850;10.454;2023-06-22T05:13:16;18.70;99.90
19799;DHT22;10059;59.850;10.454;2023-06-22T05:15:43;18.90;99.90
19799;DHT22;10059;59.850;10.454;2023-06-22T05:18:09;18.80;99.90
19799;DHT22;10059;59.850;10.454;2023-06-22T05:20:37;19.10;99.90
19799;DHT22;10059;59.850;10.454;2023-06-22T05:23:04;19.10;99.90
19799;DHT22;10059;59.850;10.454;2023-06-22T05:25:31;18.90;99.90
19799;DHT22;10059;59.850;10.454;2023-06-22T05:27:59;19.10;99.90
19799;DHT22;10059;59.850;10.454;2023-06-22T05:30:27;19.00;99.90
19799;DHT22;10059;59.850;10.454;2023-06-22T05:32:54;18.90;99.90
19799;DHT22;10059;59.850;10.454;2023-06-22T05:35:20;18.90;99.90
19799;DHT22;10059;59.850;10.454;2023-06-22T05:37:47;19.00;99.90
19799;DHT22;10059;59.850;10.454;2023-06-22T05:40:14;19.40;99.90
19799;DHT22;10059;59.850;10.454;2023-06-22T05:42:41;19.60;99.90
19799;DHT22;10059;59.850;10.454;2023-06-22T05:45:09;20.00;99.90
19799;DHT22;10059;59.850;10.454;2023-06-22T05:47:36;20.10;99.90
19799;DHT22;10059;59.850;10.454;2023-06-22T05:50:04;20.40;99.90
19799;DHT22;10059;59.850;10.454;2023-06-22T05:52:34;20.30;99.90
19799;DHT22;10059;59.850;10.454;2023-06-22T05:55:02;20.30;99.90
19799;DHT22;10059;59.850;10.454;2023-06-22T05:57:29;20.40;99.90
19799;DHT22;10059;59.850;10.454;2023-06-22T05:59:56;20.60;99.90
19799;DHT22;10059;59.850;10.454;2023-06-22T06:02:24;20.60;99.90
19799;DHT22;10059;59.850;10.454;2023-06-22T06:04:51;20.80;99.90
19799;DHT22;10059;59.850;10.454;2023-06-22T06:07:18;21.10;99.90
19799;DHT22;10059;59.850;10.454;2023-06-22T06:09:45;21.30;99.90
19799;DHT22;10059;59.850;10.454;2023-06-22T06:12:13;21.50;99.90
19799;DHT22;10059;59.850;10.454;2023-06-22T06:14:40;21.60;99.90
19799;DHT22;10059;59.850;10.454;2023-06-22T06:17:07;21.40;99.90
19799;DHT22;10059;59.850;10.454;2023-06-22T06:19:35;21.70;99.90
19799;DHT22;10059;59.850;10.454;2023-06-22T06:22:02;21.70;99.90
19799;DHT22;10059;59.850;10.454;2023-06-22T06:24:29;21.30;99.90
19799;DHT22;10059;59.850;10.454;2023-06-22T06:26:56;21.30;99.90
19799;DHT22;10059;59.850;10.454;2023-06-22T06:29:23;21.50;99.90
19799;DHT22;10059;59.850;10.454;2023-06-22T06:31:50;21.90;99.90
19799;DHT22;10059;59.850;10.454;2023-06-22T06:34:17;22.00;99.90
19799;DHT22;10059;59.850;10.454;2023-06-22T06:36:45;22.20;99.90
19799;DHT22;10059;59.850;10.454;2023-06-22T06:39:12;21.80;99.90
19799;DHT22;10059;59.850;10.454;2023-06-22T06:41:39;21.90;99.90
19799;DHT22;10059;59.850;10.454;2023-06-22T06:44:05;21.70;99.90
19799;DHT22;10059;59.850;10.454;2023-06-22T06:46:32;22.10;99.90
19799;DHT22;10059;59.850;10.454;2023-06-22T06:48:59;22.40;99.90
19799;DHT22;10059;59.850;10.454;2023-06-22T06:51:26;22.00;99.90
19799;DHT22;10059;59.850;10.454;2023-06-22T06:53:55;22.20;99.90
19799;DHT22;10059;59.850;10.454;2023-06-22T06:56:22;22.40;99.90
19799;DHT22;10059;59.850;10.454;2023-06-22T06:58:50;22.80;99.90
19799;DHT22;10059;59.850;10.454;2023-06-22T07:01:17;22.90;99.90
19799;DHT22;10059;59.850;10.454;2023-06-22T07:03:45;23.20;99.90
19799;DHT22;10059;59.850;10.454;2023-06-22T07:06:13;23.50;99.90
19799;DHT22;10059;59.850;10.454;2023-06-22T07:08:41;23.80;99.90
19799;DHT22;10059;59.850;10.454;2023-06-22T07:11:10;23.50;99.90
19799;DHT22;10059;59.850;10.454;2023-06-22T07:13:37;23.90;99.90
19799;DHT22;10059;59.850;10.454;2023-06-22T07:16:04;23.50;99.90
19799;DHT22;10059;59.850;10.454;2023-06-22T07:18:31;23.10;99.90
19799;DHT22;10059;59.850;10.454;2023-06-22T07:20:58;23.50;99.90
19799;DHT22;10059;59.850;10.454;2023-06-22T07:23:25;23.70;99.90
19799;DHT22;10059;59.850;10.454;2023-06-22T07:25:52;23.80;99.90
19799;DHT22;10059;59.850;10.454;2023-06-22T07:28:20;23.80;99.90
19799;DHT22;10059;59.850;10.454;2023-06-22T07:30:46;24.50;99.90
19799;DHT22;10059;59.850;10.454;2023-06-22T07:33:13;24.50;99.90
19799;DHT22;10059;59.850;10.454;2023-06-22T07:35:40;24.40;99.90
19799;DHT22;10059;59.850;10.454;2023-06-22T07:38:07;24.10;99.90
19799;DHT22;10059;59.850;10.454;2023-06-22T07:40:34;23.40;99.90
19799;DHT22;10059;59.850;10.454;2023-06-22T07:43:01;23.90;99.90
19799;DHT22;10059;59.850;10.454;2023-06-22T07:45:30;23.80;99.90
19799;DHT22;10059;59.850;10.454;2023-06-22T07:47:58;23.70;99.90
19799;DHT22;10059;59.850;10.454;2023-06-22T07:50:25;23.90;99.90
19799;DHT22;10059;59.850;10.454;2023-06-22T07:52:52;24.60;99.90
19799;DHT22;10059;59.850;10.454;2023-06-22T07:55:19;24.40;99.90
19799;DHT22;10059;59.850;10.454;2023-06-22T07:57:48;24.60;99.90
19799;DHT22;10059;59.850;10.454;2023-06-22T08:00:17;24.40;99.90
19799;DHT22;10059;59.850;10.454;2023-06-22T08:02:46;24.80;99.90
19799;DHT22;10059;59.850;10.454;2023-06-22T08:05:14;24.60;99.90
19799;DHT22;10059;59.850;10.454;2023-06-22T08:07:41;24.70;99.90
19799;DHT22;10059;59.850;10.454;2023-06-22T08:10:11;25.00;99.90
19799;DHT22;10059;59.850;10.454;2023-06-22T08:12:38;25.40;99.90
19799;DHT22;10059;59.850;10.454;2023-06-22T08:15:06;25.30;99.90
19799;DHT22;10059;59.850;10.454;2023-06-22T08:17:36;25.70;99.90
19799;DHT22;10059;59.850;10.454;2023-06-22T08:20:06;25.50;99.90
19799;DHT22;10059;59.850;10.454;2023-06-22T08:22:36;25.30;99.90
19799;DHT22;10059;59.850;10.454;2023-06-22T08:25:04;24.70;99.90
19799;DHT22;10059;59.850;10.454;2023-06-22T08:27:31;24.00;99.90
19799;DHT22;10059;59.850;10.454;2023-06-22T08:29:58;24.60;99.90
19799;DHT22;10059;59.850;10.454;2023-06-22T08:32:25;25.00;99.90
19799;DHT22;10059;59.850;10.454;2023-06-22T08:34:52;25.30;99.90
19799;DHT22;10059;59.850;10.454;2023-06-22T08:37:20;24.30;99.90
19799;DHT22;10059;59.850;10.454;2023-06-22T08:39:55;24.60;99.90
19799;DHT22;10059;59.850;10.454;2023-06-22T08:42:22;24.60;99.90
19799;DHT22;10059;59.850;10.454;2023-06-22T08:44:50;24.40;99.90
19799;DHT22;10059;59.850;10.454;2023-06-22T08:47:17;24.30;99.90
19799;DHT22;10059;59.850;10.454;2023-06-22T08:49:44;24.40;99.90
19799;DHT22;10059;59.850;10.454;2023-06-22T08:52:10;24.50;99.90
19799;DHT22;10059;59.850;10.454;2023-06-22T08:54:39;24.90;99.90
19799;DHT22;10059;59.850;10.454;2023-06-22T08:57:06;24.60;99.90
19799;DHT22;10059;59.850;10.454;2023-06-22T08:59:33;24.80;99.90
19799;DHT22;10059;59.850;10.454;2023-06-22T09:02:00;24.50;99.90
19799;DHT22;10059;59.850;10.454;2023-06-22T09:04:27;24.50;99.90
19799;DHT22;10059;59.850;10.454;2023-06-22T09:06:53;24.50;99.90
19799;DHT22;10059;59.850;10.454;2023-06-22T09:09:21;24.40;99.90
19799;DHT22;10059;59.850;10.454;2023-06-22T09:11:49;25.20;99.90
19799;DHT22;10059;59.850;10.454;2023-06-22T09:14:16;25.50;99.90
19799;DHT22;10059;59.850;10.454;2023-06-22T09:16:43;25.40;99.90
19799;DHT22;10059;59.850;10.454;2023-06-22T09:19:10;24.90;99.90
19799;DHT22;10059;59.850;10.454;2023-06-22T09:21:37;24.80;99.90
19799;DHT22;10059;59.850;10.454;2023-06-22T09:24:04;24.70;99.90
19799;DHT22;10059;59.850;10.454;2023-06-22T09:26:31;25.00;99.90
19799;DHT22;10059;59.850;10.454;2023-06-22T09:28:59;25.40;99.90
19799;DHT22;10059;59.850;10.454;2023-06-22T09:31:26;25.20;99.90
19799;DHT22;10059;59.850;10.454;2023-06-22T09:33:53;25.60;99.90
19799;DHT22;10059;59.850;10.454;2023-06-22T09:36:20;25.80;99.90
19799;DHT22;10059;59.850;10.454;2023-06-22T09:38:47;25.80;99.90
19799;DHT22;10059;59.850;10.454;2023-06-22T09:41:21;26.00;99.90
19799;DHT22;10059;59.850;10.454;2023-06-22T09:43:48;25.60;99.90
19799;DHT22;10059;59.850;10.454;2023-06-22T09:46:16;25.20;99.90
19799;DHT22;10059;59.850;10.454;2023-06-22T09:48:43;25.80;99.90
19799;DHT22;10059;59.850;10.454;2023-06-22T09:51:11;25.80;99.90
19799;DHT22;10059;59.850;10.454;2023-06-22T09:53:38;25.80;99.90
19799;DHT22;10059;59.850;10.454;2023-06-22T09:56:04;25.50;99.90
19799;DHT22;10059;59.850;10.454;2023-06-22T09:58:31;25.40;99.90
19799;DHT22;10059;59.850;10.454;2023-06-22T10:00:58;25.40;99.90
19799;DHT22;10059;59.850;10.454;2023-06-22T10:03:26;25.90;99.90
19799;DHT22;10059;59.850;10.454;2023-06-22T10:05:53;25.80;99.90
19799;DHT22;10059;59.850;10.454;2023-06-22T10:08:20;25.10;99.90
19799;DHT22;10059;59.850;10.454;2023-06-22T10:10:47;25.20;99.90
19799;DHT22;10059;59.850;10.454;2023-06-22T10:13:13;25.60;99.90
19799;DHT22;10059;59.850;10.454;2023-06-22T10:15:41;25.50;99.90
19799;DHT22;10059;59.850;10.454;2023-06-22T10:18:08;25.30;99.90
19799;DHT22;10059;59.850;10.454;2023-06-22T10:20:36;25.40;99.90
19799;DHT22;10059;59.850;10.454;2023-06-22T10:23:03;25.20;99.90
19799;DHT22;10059;59.850;10.454;2023-06-22T10:25:30;25.00;99.90
19799;DHT22;10059;59.850;10.454;2023-06-22T10:27:57;24.60;99.90
19799;DHT22;10059;59.850;10.454;2023-06-22T10:30:24;24.70;99.90
19799;DHT22;10059;59.850;10.454;2023-06-22T10:32:50;24.80;99.90
19799;DHT22;10059;59.850;10.454;2023-06-22T10:35:17;24.80;99.90
19799;DHT22;10059;59.850;10.454;2023-06-22T10:37:46;24.30;99.90
19799;DHT22;10059;59.850;10.454;2023-06-22T10:40:14;24.60;99.90
19799;DHT22;10059;59.850;10.454;2023-06-22T10:42:41;24.80;99.90
19799;DHT22;10059;59.850;10.454;2023-06-22T10:45:09;24.60;99.90
19799;DHT22;10059;59.850;10.454;2023-06-22T10:47:36;24.90;99.90
19799;DHT22;10059;59.850;10.454;2023-06-22T10:50:04;25.50;99.90
19799;DHT22;10059;59.850;10.454;2023-06-22T10:52:30;25.90;99.90
19799;DHT22;10059;59.850;10.454;2023-06-22T10:54:59;25.80;99.90
19799;DHT22;10059;59.850;10.454;2023-06-22T10:57:25;25.40;99.90
19799;DHT22;10059;59.850;10.454;2023-06-22T10:59:52;25.70;99.90
19799;DHT22;10059;59.850;10.454;2023-06-22T11:02:19;26.00;99.90
19799;DHT22;10059;59.850;10.454;2023-06-22T11:04:46;26.50;99.90
19799;DHT22;10059;59.850;10.454;2023-06-22T11:07:13;26.60;99.90
19799;DHT22;10059;59.850;10.454;2023-06-22T11:09:40;26.90;99.90
19799;DHT22;10059;59.850;10.454;2023-06-22T11:12:08;27.80;99.90
19799;DHT22;10059;59.850;10.454;2023-06-22T11:14:35;28.10;99.90
19799;DHT22;10059;59.850;10.454;2023-06-22T11:17:02;26.80;99.90
19799;DHT22;10059;59.850;10.454;2023-06-22T11:19:29;26.60;99.90
19799;DHT22;10059;59.850;10.454;2023-06-22T11:21:56;26.20;99.90
19799;DHT22;10059;59.850;10.454;2023-06-22T11:24:23;26.30;99.90
19799;DHT22;10059;59.850;10.454;2023-06-22T11:26:49;26.50;99.90
19799;DHT22;10059;59.850;10.454;2023-06-22T11:29:18;26.00;99.90
19799;DHT22;10059;59.850;10.454;2023-06-22T11:31:44;25.50;99.90
19799;DHT22;10059;59.850;10.454;2023-06-22T11:34:11;25.60;99.90
19799;DHT22;10059;59.850;10.454;2023-06-22T11:36:38;26.70;99.90
19799;DHT22;10059;59.850;10.454;2023-06-22T11:39:05;26.80;99.90
19799;DHT22;10059;59.850;10.454;2023-06-22T11:41:31;27.50;99.90
19799;DHT22;10059;59.850;10.454;2023-06-22T11:43:58;27.30;99.90
19799;DHT22;10059;59.850;10.454;2023-06-22T11:46:26;27.10;99.90
19799;DHT22;10059;59.850;10.454;2023-06-22T11:48:53;27.40;99.90
19799;DHT22;10059;59.850;10.454;2023-06-22T11:51:20;27.60;98.50
19799;DHT22;10059;59.850;10.454;2023-06-22T11:53:47;27.40;98.60
19799;DHT22;10059;59.850;10.454;2023-06-22T11:56:14;27.80;98.80
19799;DHT22;10059;59.850;10.454;2023-06-22T11:58:41;28.10;96.30
19799;DHT22;10059;59.850;10.454;2023-06-22T12:01:07;28.20;96.90
19799;DHT22;10059;59.850;10.454;2023-06-22T12:03:36;28.30;95.50
19799;DHT22;10059;59.850;10.454;2023-06-22T12:06:02;28.20;96.30
19799;DHT22;10059;59.850;10.454;2023-06-22T12:08:29;27.90;96.00
19799;DHT22;10059;59.850;10.454;2023-06-22T12:10:56;27.20;95.60
19799;DHT22;10059;59.850;10.454;2023-06-22T12:13:23;27.10;97.10
19799;DHT22;10059;59.850;10.454;2023-06-22T12:15:50;27.50;96.90
19799;DHT22;10059;59.850;10.454;2023-06-22T12:18:17;27.80;98.10
19799;DHT22;10059;59.850;10.454;2023-06-22T12:20:47;28.50;95.80
19799;DHT22;10059;59.850;10.454;2023-06-22T12:23:14;28.50;93.60
19799;DHT22;10059;59.850;10.454;2023-06-22T12:25:41;28.30;94.20
19799;DHT22;10059;59.850;10.454;2023-06-22T12:28:08;29.00;96.10
19799;DHT22;10059;59.850;10.454;2023-06-22T12:30:35;28.40;93.50
19799;DHT22;10059;59.850;10.454;2023-06-22T12:33:02;28.00;93.10
19799;DHT22;10059;59.850;10.454;2023-06-22T12:35:29;27.60;93.80
19799;DHT22;10059;59.850;10.454;2023-06-22T12:37:57;28.30;94.30
19799;DHT22;10059;59.850;10.454;2023-06-22T12:40:24;28.30;92.50
19799;DHT22;10059;59.850;10.454;2023-06-22T12:42:51;28.00;93.20
19799;DHT22;10059;59.850;10.454;2023-06-22T12:45:18;27.80;92.90
19799;DHT22;10059;59.850;10.454;2023-06-22T12:47:46;28.00;92.10
19799;DHT22;10059;59.850;10.454;2023-06-22T12:50:15;27.90;91.70
19799;DHT22;10059;59.850;10.454;2023-06-22T12:52:42;28.80;93.90
19799;DHT22;10059;59.850;10.454;2023-06-22T12:55:10;28.70;90.90
19799;DHT22;10059;59.850;10.454;2023-06-22T12:57:37;28.80;92.20
19799;DHT22;10059;59.850;10.454;2023-06-22T13:00:05;28.30;91.00
19799;DHT22;10059;59.850;10.454;2023-06-22T13:02:35;28.80;91.80
19799;DHT22;10059;59.850;10.454;2023-06-22T13:05:02;29.00;91.10
19799;DHT22;10059;59.850;10.454;2023-06-22T13:07:30;28.70;90.30
19799;DHT22;10059;59.850;10.454;2023-06-22T13:09:57;28.80;91.90
19799;DHT22;10059;59.850;10.454;2023-06-22T13:12:25;28.60;90.50
19799;DHT22;10059;59.850;10.454;2023-06-22T13:14:52;29.30;90.50
19799;DHT22;10059;59.850;10.454;2023-06-22T13:17:19;29.40;89.20
19799;DHT22;10059;59.850;10.454;2023-06-22T13:19:46;29.00;84.10
19799;DHT22;10059;59.850;10.454;2023-06-22T13:22:29;29.70;89.80
19799;DHT22;10059;59.850;10.454;2023-06-22T13:24:56;29.70;86.90
19799;DHT22;10059;59.850;10.454;2023-06-22T13:27:25;29.40;84.10
19799;DHT22;10059;59.850;10.454;2023-06-22T13:29:52;28.70;84.40
19799;DHT22;10059;59.850;10.454;2023-06-22T13:32:19;28.70;82.40
19799;DHT22;10059;59.850;10.454;2023-06-22T13:34:46;28.70;79.10
19799;DHT22;10059;59.850;10.454;2023-06-22T13:37:12;27.80;79.60
19799;DHT22;10059;59.850;10.454;2023-06-22T13:39:39;27.80;83.20
19799;DHT22;10059;59.850;10.454;2023-06-22T13:42:07;28.10;81.90
19799;DHT22;10059;59.850;10.454;2023-06-22T13:44:35;28.20;82.90
19799;DHT22;10059;59.850;10.454;2023-06-22T13:47:02;27.50;79.80
19799;DHT22;10059;59.850;10.454;2023-06-22T13:49:30;28.00;82.40
19799;DHT22;10059;59.850;10.454;2023-06-22T13:51:57;28.10;80.20
19799;DHT22;10059;59.850;10.454;2023-06-22T13:54:23;28.70;81.50
19799;DHT22;10059;59.850;10.454;2023-06-22T13:56:50;28.10;77.80
19799;DHT22;10059;59.850;10.454;2023-06-22T13:59:18;27.50;76.90
19799;DHT22;10059;59.850;10.454;2023-06-22T14:01:47;27.60;79.80
19799;DHT22;10059;59.850;10.454;2023-06-22T14:04:14;27.30;78.50
19799;DHT22;10059;59.850;10.454;2023-06-22T14:06:41;27.70;82.30
19799;DHT22;10059;59.850;10.454;2023-06-22T14:09:07;27.90;82.90
19799;DHT22;10059;59.850;10.454;2023-06-22T14:11:34;28.70;84.20
19799;DHT22;10059;59.850;10.454;2023-06-22T14:14:01;28.30;78.20
19799;DHT22;10059;59.850;10.454;2023-06-22T14:16:28;28.10;76.90
19799;DHT22;10059;59.850;10.454;2023-06-22T14:18:56;27.70;76.80
19799;DHT22;10059;59.850;10.454;2023-06-22T14:21:23;27.60;80.50
19799;DHT22;10059;59.850;10.454;2023-06-22T14:23:50;27.70;78.50
19799;DHT22;10059;59.850;10.454;2023-06-22T14:26:17;28.40;81.00
19799;DHT22;10059;59.850;10.454;2023-06-22T14:28:44;28.80;80.70
19799;DHT22;10059;59.850;10.454;2023-06-22T14:31:14;29.20;81.90
19799;DHT22;10059;59.850;10.454;2023-06-22T14:33:43;29.10;77.10
19799;DHT22;10059;59.850;10.454;2023-06-22T14:36:11;28.80;78.90
19799;DHT22;10059;59.850;10.454;2023-06-22T14:38:38;28.90;79.00
19799;DHT22;10059;59.850;10.454;2023-06-22T14:41:05;28.50;78.00
19799;DHT22;10059;59.850;10.454;2023-06-22T14:43:32;28.20;80.50
19799;DHT22;10059;59.850;10.454;2023-06-22T14:45:59;28.20;79.20
19799;DHT22;10059;59.850;10.454;2023-06-22T14:48:26;28.10;80.40
19799;DHT22;10059;59.850;10.454;2023-06-22T14:50:53;28.70;83.10
19799;DHT22;10059;59.850;10.454;2023-06-22T14:53:21;28.20;76.80
19799;DHT22;10059;59.850;10.454;2023-06-22T14:55:48;27.40;78.20
19799;DHT22;10059;59.850;10.454;2023-06-22T14:58:15;27.80;80.70
19799;DHT22;10059;59.850;10.454;2023-06-22T15:00:42;27.80;77.20
19799;DHT22;10059;59.850;10.454;2023-06-22T15:03:09;27.10;78.80
19799;DHT22;10059;59.850;10.454;2023-06-22T15:05:42;27.50;82.10
19799;DHT22;10059;59.850;10.454;2023-06-22T15:08:09;27.40;76.10
19799;DHT22;10059;59.850;10.454;2023-06-22T15:10:37;27.80;77.50
19799;DHT22;10059;59.850;10.454;2023-06-22T15:13:04;27.90;80.50
19799;DHT22;10059;59.850;10.454;2023-06-22T15:15:31;28.10;78.40
19799;DHT22;10059;59.850;10.454;2023-06-22T15:17:59;27.80;77.70